Time;durP1;ratioP1;P1;durP2;ratioP2;P2;SDS_P1;SDS_P2;PMS_P1;PMS_P2;Temp;Humidity;BMP_temperature;BMP_pressure;BME280_temperature;BME280_humidity;BME280_pressure;Samples;Min_cycle;Max_cycle;Signal;HPM_P1;HPM_P2
2022/09/28 00:01:22;;;;;;;2.17;1.37;;;12.20;99.90;;;;;;4965323;28;20516;-73
2022/09/28 00:03:50;;;;;;;2.33;1.20;;;12.30;99.90;;;;;;4960133;28;22235;-74
2022/09/28 00:06:19;;;;;;;5.03;1.30;;;12.30;99.90;;;;;;4980175;28;20528;-73
2022/09/28 00:08:45;;;;;;;4.50;1.60;;;12.10;99.90;;;;;;4956252;28;20456;-73
2022/09/28 00:11:14;;;;;;;2.60;1.50;;;12.20;99.90;;;;;;4967455;28;20874;-73
2022/09/28 00:13:41;;;;;;;2.57;1.40;;;12.10;99.90;;;;;;4971748;28;20531;-73
2022/09/28 00:16:12;;;;;;;1.70;1.20;;;12.10;99.90;;;;;;4970138;28;20437;-75
2022/09/28 00:18:38;;;;;;;2.40;1.40;;;12.20;99.90;;;;;;4975904;28;20463;-73
2022/09/28 00:21:10;;;;;;;3.93;1.50;;;12.20;99.90;;;;;;4970739;28;20440;-72
2022/09/28 00:24:11;;;;;;;2.43;1.20;;;12.20;99.90;;;;;;4974200;28;20954;-72
2022/09/28 00:26:30;;;;;;;3.57;1.57;;;12.20;99.90;;;;;;4966276;28;20445;-75
2022/09/28 00:28:58;;;;;;;3.13;1.43;;;12.10;99.90;;;;;;4948089;28;20462;-75
2022/09/28 00:31:25;;;;;;;2.10;1.33;;;12.10;99.90;;;;;;4961339;28;20483;-75
2022/09/28 00:33:52;;;;;;;4.27;2.60;;;12.20;99.90;;;;;;4963278;28;21371;-75
2022/09/28 00:36:18;;;;;;;8.43;1.67;;;12.10;99.90;;;;;;4965998;28;20461;-75
2022/09/28 00:38:45;;;;;;;3.63;1.50;;;12.20;99.90;;;;;;4962139;28;20469;-72
2022/09/28 00:41:11;;;;;;;5.40;1.20;;;12.20;99.90;;;;;;4965965;28;20429;-74
2022/09/28 00:43:36;;;;;;;2.90;1.27;;;12.20;99.90;;;;;;4978443;28;20433;-73
2022/09/28 00:46:32;;;;;;;3.07;1.40;;;12.10;99.90;;;;;;4978115;28;20432;-75
2022/09/28 00:49:02;;;;;;;3.70;1.60;;;12.10;99.90;;;;;;4971915;28;20214;-73
2022/09/28 00:51:30;;;;;;;5.03;1.80;;;12.00;99.90;;;;;;4976664;28;20452;-74
2022/09/28 00:53:58;;;;;;;2.50;1.50;;;12.00;99.90;;;;;;4968809;28;20493;-74
2022/09/28 00:56:29;;;;;;;3.10;1.63;;;12.10;99.90;;;;;;4975604;28;20519;-74
2022/09/28 00:58:55;;;;;;;4.23;1.60;;;12.00;99.90;;;;;;4972083;28;20977;-74
2022/09/28 01:01:21;;;;;;;2.77;1.63;;;12.00;99.90;;;;;;4973950;28;20441;-74
2022/09/28 01:03:47;;;;;;;4.23;1.83;;;12.00;99.90;;;;;;4948650;28;20452;-74
2022/09/28 01:06:20;;;;;;;3.97;1.50;;;12.00;99.90;;;;;;4963236;28;20197;-73
2022/09/28 01:08:50;;;;;;;2.27;1.37;;;12.00;99.90;;;;;;4961398;28;20871;-72
2022/09/28 01:11:17;;;;;;;4.33;1.43;;;12.00;99.90;;;;;;4968359;28;20520;-72
2022/09/28 01:13:45;;;;;;;2.17;1.50;;;12.00;99.90;;;;;;4958531;28;20465;-73
2022/09/28 01:16:40;;;;;;;3.70;1.40;;;11.90;99.90;;;;;;4975568;28;20429;-73
2022/09/28 01:19:36;;;;;;;4.77;1.90;;;11.90;99.90;;;;;;4950601;28;20459;-73
2022/09/28 01:22:17;;;;;;;3.03;1.60;;;11.90;99.90;;;;;;4967398;28;20572;-73
2022/09/28 01:24:48;;;;;;;2.53;1.50;;;11.90;99.90;;;;;;4979015;28;20931;-73
2022/09/28 01:27:35;;;;;;;3.70;2.23;;;11.90;99.90;;;;;;4979399;28;20425;-74
2022/09/28 01:30:10;;;;;;;3.63;1.53;;;11.90;99.90;;;;;;4977774;28;21010;-73
2022/09/28 01:32:45;;;;;;;6.03;2.03;;;11.90;99.90;;;;;;4949578;28;20471;-73
2022/09/28 01:35:22;;;;;;;4.20;2.20;;;11.80;99.90;;;;;;4966008;28;20432;-73
2022/09/28 01:38:16;;;;;;;4.43;1.80;;;11.90;99.90;;;;;;4971983;28;21310;-73
2022/09/28 01:40:43;;;;;;;3.80;1.83;;;11.90;99.90;;;;;;4967708;28;20426;-73
2022/09/28 01:43:23;;;;;;;2.50;1.90;;;12.00;99.90;;;;;;4947170;28;20451;-76
2022/09/28 01:46:12;;;;;;;3.33;1.90;;;11.90;99.90;;;;;;4979702;28;20528;-74
2022/09/28 01:49:04;;;;;;;7.73;2.37;;;11.90;99.90;;;;;;4979072;28;20436;-74
2022/09/28 01:51:46;;;;;;;9.23;2.37;;;11.90;99.90;;;;;;4967122;28;20973;-74
2022/09/28 01:54:16;;;;;;;5.97;2.10;;;12.00;99.90;;;;;;4954188;28;21236;-74
2022/09/28 01:56:53;;;;;;;4.83;2.60;;;12.00;99.90;;;;;;4971524;28;20417;-75
2022/09/28 01:59:23;;;;;;;3.57;2.10;;;11.90;99.90;;;;;;4961962;28;20456;-75
2022/09/28 02:01:57;;;;;;;7.23;2.30;;;12.00;99.90;;;;;;4961156;28;21452;-75
2022/09/28 02:04:29;;;;;;;9.93;2.77;;;11.90;99.90;;;;;;4952719;28;20524;-75
2022/09/28 02:07:02;;;;;;;3.90;2.47;;;12.00;99.90;;;;;;4973633;28;20488;-75
2022/09/28 02:09:46;;;;;;;8.20;3.03;;;12.00;99.90;;;;;;4970186;28;20456;-75
2022/09/28 02:12:23;;;;;;;4.90;2.93;;;11.90;99.90;;;;;;4972049;28;20460;-74
2022/09/28 02:14:55;;;;;;;5.20;2.53;;;12.00;99.90;;;;;;4950236;28;20441;-75
2022/09/28 02:17:21;;;;;;;5.20;2.43;;;12.00;99.90;;;;;;4977575;28;20413;-75
2022/09/28 02:19:50;;;;;;;3.20;2.50;;;12.00;99.90;;;;;;4970616;28;20464;-75
2022/09/28 02:22:32;;;;;;;3.33;1.90;;;12.10;99.90;;;;;;4968963;28;20249;-74
2022/09/28 02:25:04;;;;;;;4.27;2.37;;;12.10;99.90;;;;;;4973337;28;20444;-75
2022/09/28 02:27:53;;;;;;;2.30;1.73;;;12.10;99.90;;;;;;4960759;28;20437;-75
2022/09/28 02:30:19;;;;;;;1.90;1.30;;;12.10;99.90;;;;;;4962453;28;20968;-74
2022/09/28 02:32:47;;;;;;;3.10;1.20;;;12.00;99.90;;;;;;4963744;28;20499;-75
2022/09/28 02:35:16;;;;;;;2.10;1.40;;;12.00;99.90;;;;;;4966833;28;20433;-75
2022/09/28 02:37:43;;;;;;;2.43;1.20;;;12.00;99.90;;;;;;4970686;28;20441;-75
2022/09/28 02:40:17;;;;;;;1.90;1.20;;;12.00;99.90;;;;;;4972401;28;20805;-74
2022/09/28 02:43:08;;;;;;;2.77;1.30;;;12.00;99.90;;;;;;4969618;28;20443;-75
2022/09/28 02:45:46;;;;;;;2.27;1.30;;;12.00;99.90;;;;;;4975029;28;20464;-75
2022/09/28 02:48:26;;;;;;;3.00;1.20;;;12.00;99.90;;;;;;4956000;28;20595;-74
2022/09/28 02:50:57;;;;;;;2.60;1.30;;;12.00;99.90;;;;;;4978099;28;21001;-75
2022/09/28 02:53:44;;;;;;;2.17;1.13;;;11.90;99.90;;;;;;4977057;28;20526;-75
2022/09/28 02:56:19;;;;;;;2.57;1.10;;;11.90;99.90;;;;;;4969856;28;20524;-74
2022/09/28 02:58:55;;;;;;;2.70;1.50;;;11.90;99.90;;;;;;4971175;28;21812;-75
2022/09/28 03:01:42;;;;;;;4.63;1.40;;;11.90;99.90;;;;;;4967799;28;20952;-74
2022/09/28 03:04:29;;;;;;;6.20;1.20;;;12.00;99.90;;;;;;4966690;28;20433;-74
2022/09/28 03:07:02;;;;;;;1.93;1.30;;;11.90;99.90;;;;;;4972789;28;20527;-75
2022/09/28 03:09:50;;;;;;;3.63;1.47;;;11.90;99.90;;;;;;4978560;28;20531;-75
2022/09/28 03:12:19;;;;;;;1.73;1.10;;;12.00;99.90;;;;;;4976259;28;20453;-75
2022/09/28 03:14:45;;;;;;;1.60;1.20;;;12.00;99.90;;;;;;4975920;28;20746;-75
2022/09/28 03:17:10;;;;;;;3.80;1.20;;;12.10;99.90;;;;;;4977837;28;20425;-75
2022/09/28 03:19:36;;;;;;;2.30;1.20;;;12.10;99.90;;;;;;4978918;28;20198;-74
2022/09/28 03:22:02;;;;;;;5.30;1.60;;;12.10;99.90;;;;;;4969479;28;20664;-74
2022/09/28 03:24:27;;;;;;;3.80;1.53;;;12.10;99.90;;;;;;4960500;28;20923;-75
2022/09/28 03:26:53;;;;;;;5.83;1.80;;;12.10;99.90;;;;;;4981394;28;20182;-75
2022/09/28 03:29:19;;;;;;;2.47;1.20;;;12.10;99.90;;;;;;4980539;28;20280;-75
2022/09/28 03:31:46;;;;;;;2.40;1.43;;;12.10;99.90;;;;;;4976432;28;20448;-75
2022/09/28 03:34:11;;;;;;;3.40;1.50;;;12.10;99.90;;;;;;4962131;28;20189;-75
2022/09/28 03:36:37;;;;;;;2.23;1.20;;;12.10;99.90;;;;;;4979765;28;20445;-75
2022/09/28 03:39:03;;;;;;;3.00;1.30;;;12.00;99.90;;;;;;4980083;28;20272;-76
2022/09/28 03:41:29;;;;;;;4.47;1.60;;;12.00;99.90;;;;;;4983747;28;20182;-75
2022/09/28 03:43:54;;;;;;;2.80;1.40;;;12.10;99.90;;;;;;4979043;28;20444;-75
2022/09/28 03:46:20;;;;;;;2.50;1.40;;;12.10;99.90;;;;;;4980638;28;20372;-73
2022/09/28 03:48:45;;;;;;;2.07;1.40;;;12.10;99.90;;;;;;4982702;28;20201;-73
2022/09/28 03:51:12;;;;;;;3.47;1.40;;;12.10;99.90;;;;;;4980099;28;20193;-73
2022/09/28 03:53:38;;;;;;;3.00;1.80;;;12.20;99.90;;;;;;4980466;28;20237;-74
2022/09/28 03:56:11;;;;;;;4.10;1.80;;;12.10;99.90;;;;;;4979711;28;20432;-73
2022/09/28 03:58:37;;;;;;;2.70;1.60;;;12.00;99.90;;;;;;4952298;28;20465;-73
2022/09/28 04:01:08;;;;;;;3.30;1.73;;;12.00;99.90;;;;;;4953510;28;20449;-73
2022/09/28 04:03:34;;;;;;;2.10;1.40;;;12.00;99.90;;;;;;4960619;28;20450;-73
2022/09/28 04:06:00;;;;;;;2.50;1.50;;;12.10;99.90;;;;;;4973988;28;20456;-73
2022/09/28 04:08:26;;;;;;;5.17;1.70;;;12.00;99.90;;;;;;4978290;28;20976;-74
2022/09/28 04:10:56;;;;;;;7.30;1.90;;;12.00;99.90;;;;;;4977549;28;20181;-75
2022/09/28 04:13:22;;;;;;;3.30;1.83;;;12.10;99.90;;;;;;4977709;28;20555;-73
2022/09/28 04:15:55;;;;;;;4.17;3.20;;;12.10;99.90;;;;;;4972568;28;20516;-75
2022/09/28 04:18:21;;;;;;;4.33;2.33;;;12.10;99.90;;;;;;4978533;28;20528;-75
2022/09/28 04:20:47;;;;;;;4.03;2.20;;;12.00;99.90;;;;;;4958192;28;20430;-75
2022/09/28 04:23:16;;;;;;;3.60;2.10;;;12.10;99.90;;;;;;4961699;28;20528;-75
2022/09/28 04:25:46;;;;;;;2.50;1.77;;;12.20;99.90;;;;;;4976751;28;20188;-75
2022/09/28 04:30:56;;;;;;;4.23;2.30;;;12.20;99.90;;;;;;4979350;28;21107;-75
2022/09/28 04:33:22;;;;;;;3.27;1.93;;;12.20;99.90;;;;;;4981991;28;20473;-75
2022/09/28 04:35:47;;;;;;;2.60;2.20;;;12.10;99.90;;;;;;4975847;28;20190;-74
2022/09/28 04:38:13;;;;;;;3.90;2.23;;;12.10;99.90;;;;;;4977554;28;20206;-75
2022/09/28 04:40:39;;;;;;;3.93;2.00;;;12.10;99.90;;;;;;4981693;28;20264;-75
2022/09/28 04:43:04;;;;;;;4.93;2.10;;;12.10;99.90;;;;;;4980216;28;20227;-75
2022/09/28 04:45:30;;;;;;;3.03;1.90;;;12.20;99.90;;;;;;4981269;28;20193;-74
2022/09/28 04:47:56;;;;;;;2.93;1.87;;;12.10;99.90;;;;;;4978240;28;20734;-73
2022/09/28 04:50:22;;;;;;;4.40;2.10;;;12.10;99.90;;;;;;4979764;28;20193;-73
2022/09/28 04:52:47;;;;;;;3.20;2.17;;;12.00;99.90;;;;;;4980583;28;21325;-73
2022/09/28 04:55:13;;;;;;;2.63;2.03;;;12.00;99.90;;;;;;4980325;28;20190;-73
2022/09/28 04:57:39;;;;;;;3.97;2.17;;;12.00;99.90;;;;;;4981009;28;20255;-74
2022/09/28 05:00:06;;;;;;;4.07;2.00;;;12.00;99.90;;;;;;4980853;28;20208;-74
2022/09/28 05:02:32;;;;;;;3.50;2.27;;;12.00;99.90;;;;;;4979588;28;20421;-74
2022/09/28 05:04:58;;;;;;;5.37;2.47;;;12.00;99.90;;;;;;4979028;28;20449;-74
2022/09/28 05:07:25;;;;;;;3.90;2.50;;;12.00;99.90;;;;;;4980712;28;20432;-74
2022/09/28 05:09:51;;;;;;;3.50;2.37;;;12.10;99.90;;;;;;4980514;28;20437;-74
2022/09/28 05:12:17;;;;;;;4.00;1.87;;;12.10;99.90;;;;;;4960821;28;20835;-74
2022/09/28 05:14:42;;;;;;;6.47;2.40;;;12.10;99.90;;;;;;4973992;28;20190;-73
2022/09/28 05:17:09;;;;;;;4.93;2.30;;;12.10;99.90;;;;;;4977954;28;20240;-73
2022/09/28 05:19:34;;;;;;;2.77;2.07;;;12.10;99.90;;;;;;4981445;28;20217;-73
2022/09/28 05:22:04;;;;;;;4.50;2.20;;;12.10;99.90;;;;;;4974433;28;20445;-74
2022/09/28 05:24:30;;;;;;;3.93;1.97;;;12.10;99.90;;;;;;4978943;28;20189;-73
2022/09/28 05:26:56;;;;;;;4.50;2.23;;;12.10;99.90;;;;;;4975970;28;20465;-73
2022/09/28 05:29:21;;;;;;;3.13;2.23;;;12.10;99.90;;;;;;4978779;28;20448;-73
2022/09/28 05:31:47;;;;;;;8.97;2.63;;;12.00;99.90;;;;;;4979517;28;20868;-74
2022/09/28 05:34:14;;;;;;;3.60;2.77;;;12.00;99.90;;;;;;4978792;28;20197;-74
2022/09/28 05:36:41;;;;;;;4.93;2.20;;;12.00;99.90;;;;;;4979891;28;20197;-74
2022/09/28 05:39:08;;;;;;;5.13;2.30;;;12.00;99.90;;;;;;4979317;28;20433;-74
2022/09/28 05:41:34;;;;;;;4.47;2.40;;;12.00;99.90;;;;;;4982939;28;20907;-74
2022/09/28 05:44:00;;;;;;;5.23;2.27;;;12.10;99.90;;;;;;4978606;28;20448;-74
2022/09/28 05:46:25;;;;;;;4.87;2.20;;;12.10;99.90;;;;;;4979926;28;21062;-73
2022/09/28 05:48:53;;;;;;;6.50;2.27;;;12.00;99.90;;;;;;4979362;28;20485;-73
2022/09/28 05:51:19;;;;;;;4.53;2.70;;;12.10;99.90;;;;;;4980662;28;20524;-73
2022/09/28 05:53:45;;;;;;;5.97;3.03;;;12.10;99.90;;;;;;4979176;28;20476;-73
2022/09/28 05:56:11;;;;;;;6.13;2.37;;;12.20;99.90;;;;;;4975677;28;20438;-74
2022/09/28 05:58:37;;;;;;;7.17;2.30;;;12.20;99.90;;;;;;4979245;28;20208;-73
2022/09/28 06:01:02;;;;;;;5.20;2.60;;;12.10;99.90;;;;;;4981661;28;20512;-73
2022/09/28 06:03:28;;;;;;;6.97;2.73;;;12.10;99.90;;;;;;4977495;28;20248;-74
2022/09/28 06:05:54;;;;;;;4.70;2.07;;;12.10;99.90;;;;;;4978830;28;20258;-73
2022/09/28 06:08:19;;;;;;;6.80;2.90;;;12.10;99.90;;;;;;4953851;28;20304;-73
2022/09/28 06:10:45;;;;;;;5.17;2.80;;;12.20;99.90;;;;;;4979782;28;20221;-73
2022/09/28 06:13:11;;;;;;;4.37;2.97;;;12.10;99.90;;;;;;4979079;28;20468;-74
2022/09/28 06:15:37;;;;;;;8.27;2.60;;;12.10;99.90;;;;;;4958203;28;20178;-74
2022/09/28 06:18:10;;;;;;;6.50;3.23;;;12.00;99.90;;;;;;4978479;28;20699;-73
2022/09/28 06:20:39;;;;;;;4.83;3.13;;;12.00;99.90;;;;;;4977107;28;20437;-74
2022/09/28 06:23:05;;;;;;;5.30;4.00;;;12.00;99.90;;;;;;4972065;28;20437;-74
2022/09/28 06:25:31;;;;;;;6.13;3.07;;;12.20;99.90;;;;;;4977131;28;21107;-74
2022/09/28 06:28:11;;;;;;;4.00;2.90;;;12.20;99.90;;;;;;4978326;28;20209;-74
2022/09/28 06:30:37;;;;;;;6.50;2.83;;;12.20;99.90;;;;;;4974853;28;20184;-74
2022/09/28 06:33:05;;;;;;;5.20;3.00;;;12.20;99.90;;;;;;4980987;28;20495;-74
2022/09/28 06:35:31;;;;;;;5.60;2.50;;;12.20;99.90;;;;;;4980177;28;20415;-74
2022/09/28 06:38:00;;;;;;;7.10;4.10;;;12.20;99.90;;;;;;4976965;28;20866;-74
2022/09/28 06:40:26;;;;;;;5.97;3.30;;;12.20;99.90;;;;;;4977233;28;20496;-74
2022/09/28 06:42:56;;;;;;;5.83;3.40;;;12.10;99.90;;;;;;4980045;28;20600;-74
2022/09/28 06:45:24;;;;;;;4.97;3.27;;;12.10;99.90;;;;;;4977906;28;20417;-74
2022/09/28 06:47:55;;;;;;;5.13;3.17;;;12.10;99.90;;;;;;4975540;28;20924;-73
2022/09/28 06:50:22;;;;;;;7.70;3.43;;;12.20;99.90;;;;;;4960799;28;20428;-74
2022/09/28 06:52:52;;;;;;;6.97;3.20;;;12.30;99.90;;;;;;4979191;28;20479;-75
2022/09/28 06:55:19;;;;;;;4.57;2.90;;;12.20;99.90;;;;;;4979122;28;20464;-75
2022/09/28 06:57:44;;;;;;;8.50;5.60;;;12.30;99.90;;;;;;4977799;28;20437;-75
2022/09/28 07:00:11;;;;;;;10.83;4.50;;;12.30;99.90;;;;;;4956426;28;20464;-74
2022/09/28 07:02:36;;;;;;;8.30;3.57;;;12.40;99.90;;;;;;4978767;28;20190;-74
2022/09/28 07:05:02;;;;;;;3.70;3.20;;;12.40;99.90;;;;;;4975854;28;20436;-75
2022/09/28 07:07:30;;;;;;;6.23;3.37;;;12.40;99.90;;;;;;4979408;28;20210;-75
2022/09/28 07:09:56;;;;;;;5.77;3.50;;;12.40;99.90;;;;;;4979390;28;20204;-75
2022/09/28 07:12:24;;;;;;;9.37;3.70;;;12.40;99.90;;;;;;4977176;28;20527;-75
2022/09/28 07:14:54;;;;;;;6.73;3.50;;;12.40;99.90;;;;;;4960898;28;20207;-75
2022/09/28 07:17:21;;;;;;;7.70;4.20;;;12.40;99.90;;;;;;4976762;28;20440;-75
2022/09/28 07:19:51;;;;;;;4.17;3.40;;;12.30;99.90;;;;;;4959346;28;20585;-74
2022/09/28 07:22:18;;;;;;;6.80;3.77;;;12.30;99.90;;;;;;4975146;28;20494;-74
2022/09/28 07:24:43;;;;;;;3.40;3.10;;;12.30;99.90;;;;;;4975018;28;20728;-74
2022/09/28 07:27:09;;;;;;;10.13;5.37;;;12.20;99.90;;;;;;4977612;28;20835;-74
2022/09/28 07:29:34;;;;;;;7.30;3.47;;;12.20;99.90;;;;;;4977567;28;20224;-74
2022/09/28 07:32:01;;;;;;;9.63;3.60;;;12.30;99.90;;;;;;4957223;28;20197;-74
2022/09/28 07:34:27;;;;;;;5.53;4.43;;;12.20;99.90;;;;;;4974831;28;20200;-74
2022/09/28 07:36:56;;;;;;;7.73;3.37;;;12.30;99.90;;;;;;4979317;28;21044;-73
2022/09/28 07:39:21;;;;;;;6.73;3.73;;;12.30;99.90;;;;;;4961908;28;20213;-74
2022/09/28 07:41:47;;;;;;;10.23;4.40;;;12.30;99.90;;;;;;4964042;28;20429;-73
2022/09/28 07:44:14;;;;;;;10.10;4.47;;;12.30;99.90;;;;;;4969775;28;20190;-74
2022/09/28 07:46:40;;;;;;;7.00;3.70;;;12.40;99.90;;;;;;4980230;28;20277;-74
2022/09/28 07:49:05;;;;;;;4.53;3.07;;;12.40;99.90;;;;;;4955376;28;20472;-74
2022/09/28 07:51:32;;;;;;;4.40;3.27;;;12.50;99.90;;;;;;4981743;28;20495;-74
2022/09/28 07:53:58;;;;;;;4.40;3.27;;;12.60;99.90;;;;;;4976226;28;21001;-74
2022/09/28 07:56:24;;;;;;;5.40;3.40;;;12.60;99.90;;;;;;4982845;28;20424;-74
2022/09/28 07:58:50;;;;;;;8.40;3.10;;;12.60;99.90;;;;;;4964795;28;20895;-74
2022/09/28 08:01:17;;;;;;;9.73;3.60;;;12.60;99.90;;;;;;4982249;28;20449;-74
2022/09/28 08:03:44;;;;;;;5.93;3.00;;;12.60;99.90;;;;;;4979974;28;20194;-74
2022/09/28 08:06:11;;;;;;;6.07;2.73;;;12.60;99.90;;;;;;4965635;28;20431;-74
2022/09/28 08:08:43;;;;;;;4.67;2.80;;;12.60;99.90;;;;;;4963644;28;20484;-74
2022/09/28 08:11:10;;;;;;;5.37;3.00;;;12.80;99.90;;;;;;4979981;28;20839;-74
2022/09/28 08:13:37;;;;;;;7.63;3.47;;;12.90;99.90;;;;;;4956819;28;20537;-74
2022/09/28 08:16:04;;;;;;;8.07;3.77;;;13.00;99.90;;;;;;4952140;28;20500;-74
2022/09/28 08:18:30;;;;;;;7.80;4.40;;;13.10;99.90;;;;;;4979145;28;20923;-74
2022/09/28 08:23:40;;;;;;;5.13;3.60;;;13.20;99.90;;;;;;4981724;28;20484;-74
2022/09/28 08:26:07;;;;;;;5.47;4.00;;;13.20;99.90;;;;;;4972405;28;20459;-75
2022/09/28 08:28:34;;;;;;;14.37;4.30;;;13.30;99.90;;;;;;4978864;28;20441;-75
2022/09/28 08:31:06;;;;;;;7.03;3.80;;;13.30;99.90;;;;;;4981886;28;20441;-73
2022/09/28 08:33:32;;;;;;;7.83;4.30;;;13.30;99.90;;;;;;4964196;28;20810;-74
2022/09/28 08:36:00;;;;;;;7.57;4.20;;;13.30;99.90;;;;;;4978089;28;20444;-74
2022/09/28 08:38:28;;;;;;;6.43;4.30;;;13.50;99.90;;;;;;4984563;28;20574;-74
2022/09/28 08:41:26;;;;;;;4.90;4.03;;;13.40;99.90;;;;;;4982977;28;20491;-74
2022/09/28 08:44:04;;;;;;;6.73;4.27;;;13.40;99.90;;;;;;4979404;28;20437;-73
2022/09/28 08:46:39;;;;;;;6.37;3.80;;;13.30;99.90;;;;;;4977609;28;20451;-74
2022/09/28 08:49:14;;;;;;;6.60;3.60;;;13.30;99.90;;;;;;4962813;28;20444;-74
2022/09/28 08:51:51;;;;;;;7.90;5.10;;;13.40;99.90;;;;;;4978480;28;20494;-74
2022/09/28 08:54:23;;;;;;;6.50;3.50;;;13.50;99.90;;;;;;4973513;28;20480;-74
2022/09/28 08:56:56;;;;;;;5.17;3.80;;;13.40;99.90;;;;;;4957068;28;20425;-74
2022/09/28 08:59:25;;;;;;;10.53;6.73;;;13.40;99.90;;;;;;4979120;28;21180;-74
2022/09/28 09:02:02;;;;;;;7.63;4.77;;;13.30;99.90;;;;;;4978244;28;20797;-74
2022/09/28 09:04:29;;;;;;;7.50;3.30;;;13.30;99.90;;;;;;4979990;28;20421;-74
2022/09/28 09:07:31;;;;;;;8.93;5.13;;;13.30;99.90;;;;;;4964015;28;20429;-74
2022/09/28 09:10:17;;;;;;;6.33;3.97;;;13.10;99.90;;;;;;4980903;28;20432;-74
2022/09/28 09:13:11;;;;;;;7.50;3.90;;;13.20;99.90;;;;;;4954694;28;20501;-75
2022/09/28 09:15:47;;;;;;;6.40;4.03;;;13.20;99.90;;;;;;4977626;28;20452;-74
2022/09/28 09:18:38;;;;;;;6.10;3.80;;;13.30;99.90;;;;;;4979721;28;20575;-74
2022/09/28 09:21:11;;;;;;;9.00;3.80;;;13.40;99.90;;;;;;4946296;28;20429;-74
2022/09/28 09:23:57;;;;;;;5.30;3.50;;;13.40;99.90;;;;;;4974688;28;20591;-74
2022/09/28 09:26:39;;;;;;;8.67;4.13;;;13.50;99.90;;;;;;4978824;28;20449;-74
2022/09/28 09:29:05;;;;;;;5.83;3.73;;;13.50;99.90;;;;;;4980920;28;20448;-74
2022/09/28 09:32:02;;;;;;;5.70;3.70;;;13.60;99.90;;;;;;4972146;28;21449;-74
2022/09/28 09:34:45;;;;;;;7.10;3.67;;;13.60;99.90;;;;;;4945296;28;20337;-74
2022/09/28 09:37:55;;;;;;;8.33;3.90;;;13.70;99.90;;;;;;4978220;28;20465;-74
2022/09/28 09:40:27;;;;;;;8.53;3.73;;;13.70;99.90;;;;;;4979923;28;20977;-74
2022/09/28 09:43:23;;;;;;;5.80;3.70;;;13.80;99.90;;;;;;4977628;28;20840;-74
2022/09/28 09:46:02;;;;;;;6.90;3.50;;;13.80;99.90;;;;;;4978729;28;20417;-74
2022/09/28 09:48:36;;;;;;;5.07;4.20;;;13.90;99.90;;;;;;4978876;28;20446;-74
2022/09/28 09:51:12;;;;;;;8.90;3.77;;;13.70;99.90;;;;;;4978782;28;21165;-74
2022/09/28 09:53:59;;;;;;;8.97;3.70;;;13.70;99.90;;;;;;4977608;28;20468;-74
2022/09/28 09:56:38;;;;;;;6.10;3.30;;;13.70;99.90;;;;;;4979337;28;20897;-74
2022/09/28 09:59:15;;;;;;;7.90;5.00;;;13.70;99.90;;;;;;4977789;28;20456;-74
2022/09/28 10:01:41;;;;;;;6.00;3.80;;;13.70;99.90;;;;;;4979134;28;20467;-74
2022/09/28 10:04:35;;;;;;;5.50;3.10;;;13.80;99.90;;;;;;4957550;28;20875;-75
2022/09/28 10:07:04;;;;;;;7.30;3.30;;;13.60;99.90;;;;;;4973959;28;20201;-74
2022/09/28 10:09:38;;;;;;;6.00;3.37;;;13.70;99.90;;;;;;4962824;28;20449;-74
2022/09/28 10:12:08;;;;;;;4.83;3.23;;;13.90;99.90;;;;;;4958283;28;20906;-74
2022/09/28 10:14:35;;;;;;;5.27;3.47;;;13.90;99.90;;;;;;4979764;28;20417;-74
2022/09/28 10:17:02;;;;;;;7.57;3.10;;;13.90;99.90;;;;;;4956194;28;20777;-74
2022/09/28 10:19:31;;;;;;;6.73;2.80;;;13.80;99.90;;;;;;4980863;28;20473;-74
2022/09/28 10:22:01;;;;;;;5.20;3.10;;;13.90;99.90;;;;;;4979910;28;20433;-75
2022/09/28 10:24:46;;;;;;;8.33;3.20;;;13.80;99.90;;;;;;4959743;28;20523;-74
2022/09/28 10:27:22;;;;;;;6.43;3.57;;;13.90;99.90;;;;;;4979388;28;20433;-74
2022/09/28 10:29:53;;;;;;;8.70;3.40;;;14.00;99.90;;;;;;4978467;28;20834;-74
2022/09/28 10:32:25;;;;;;;4.53;3.27;;;14.00;99.90;;;;;;4962097;28;20472;-74
2022/09/28 10:34:53;;;;;;;9.10;3.00;;;14.10;99.90;;;;;;4976769;28;20417;-74
2022/09/28 10:37:20;;;;;;;9.17;3.53;;;14.20;99.90;;;;;;4976682;28;20983;-74
2022/09/28 10:39:48;;;;;;;5.20;3.47;;;14.30;99.90;;;;;;4979850;28;20989;-74
2022/09/28 10:42:25;;;;;;;6.37;3.47;;;14.50;99.90;;;;;;4979804;28;20417;-74
2022/09/28 10:44:55;;;;;;;7.83;3.43;;;14.50;99.90;;;;;;4978825;28;21084;-75
2022/09/28 10:47:24;;;;;;;7.87;3.13;;;14.50;99.90;;;;;;4977939;28;20421;-74
2022/09/28 10:49:52;;;;;;;6.83;3.63;;;14.40;99.90;;;;;;4979733;28;20515;-74
2022/09/28 10:52:40;;;;;;;5.90;2.83;;;14.40;99.90;;;;;;4959585;28;21022;-74
2022/09/28 10:55:30;;;;;;;5.10;2.90;;;14.50;99.90;;;;;;4968269;28;20479;-73
2022/09/28 10:57:57;;;;;;;11.37;3.17;;;14.60;99.90;;;;;;4977980;28;20609;-74
2022/09/28 11:00:33;;;;;;;8.83;3.10;;;14.60;99.90;;;;;;4976793;28;20528;-73
2022/09/28 11:03:00;;;;;;;9.00;3.43;;;14.40;99.90;;;;;;4977056;28;20437;-74
2022/09/28 11:05:27;;;;;;;4.77;2.93;;;14.40;99.90;;;;;;4972210;28;20536;-74
2022/09/28 11:07:54;;;;;;;5.00;2.90;;;14.50;99.90;;;;;;4981449;28;20413;-73
2022/09/28 11:10:27;;;;;;;5.77;2.53;;;14.70;99.90;;;;;;4976770;28;20420;-74
2022/09/28 11:12:53;;;;;;;9.50;3.13;;;14.70;99.90;;;;;;4979131;28;20461;-74
2022/09/28 11:15:24;;;;;;;8.47;2.93;;;14.60;99.90;;;;;;4979691;28;20421;-74
2022/09/28 11:17:50;;;;;;;4.53;2.67;;;14.60;99.90;;;;;;4980580;28;21009;-74
2022/09/28 11:20:31;;;;;;;6.57;2.47;;;14.60;99.90;;;;;;4980574;28;20425;-74
2022/09/28 11:23:17;;;;;;;7.23;2.73;;;14.70;99.90;;;;;;4978024;28;20186;-74
2022/09/28 11:25:54;;;;;;;4.63;3.40;;;14.70;99.90;;;;;;4983696;28;20427;-74
2022/09/28 11:28:30;;;;;;;9.73;3.20;;;14.60;99.90;;;;;;4975991;28;20472;-74
2022/09/28 11:30:56;;;;;;;4.60;2.97;;;14.70;99.90;;;;;;4981868;28;20463;-74
2022/09/28 11:33:40;;;;;;;4.10;2.47;;;14.80;99.90;;;;;;4980031;28;20475;-74
2022/09/28 11:36:12;;;;;;;5.37;2.60;;;14.90;99.90;;;;;;4982977;28;20412;-74
2022/09/28 11:39:21;;;;;;;6.40;2.90;;;15.00;99.90;;;;;;4983709;28;20454;-73
2022/09/28 11:42:13;;;;;;;5.63;2.63;;;15.30;99.90;;;;;;4980474;28;20440;-74
2022/09/28 11:44:43;;;;;;;4.27;2.90;;;15.50;99.90;;;;;;4983080;28;20416;-74
2022/09/28 11:47:47;;;;;;;7.23;2.50;;;15.60;99.90;;;;;;4982492;28;20466;-74
2022/09/28 11:50:19;;;;;;;4.87;2.80;;;15.70;99.90;;;;;;4978309;28;20432;-74
2022/09/28 11:52:55;;;;;;;7.53;2.73;;;15.80;99.90;;;;;;4980493;28;20560;-74
2022/09/28 11:55:25;;;;;;;5.20;2.60;;;15.90;99.90;;;;;;4980139;28;20413;-74
2022/09/28 11:58:29;;;;;;;5.60;3.17;;;16.00;99.90;;;;;;4980512;28;20412;-73
2022/09/28 12:01:11;;;;;;;5.80;3.13;;;16.00;99.90;;;;;;4959825;28;20446;-74
2022/09/28 12:03:45;;;;;;;3.00;2.43;;;15.90;99.90;;;;;;4982520;28;20417;-74
2022/09/28 12:06:18;;;;;;;5.30;2.53;;;15.60;99.90;;;;;;4976806;28;20433;-74
2022/09/28 12:08:55;;;;;;;6.60;2.97;;;15.60;99.90;;;;;;4980888;28;20474;-74
2022/09/28 12:11:26;;;;;;;4.90;2.20;;;15.70;99.90;;;;;;4979918;28;20428;-74
2022/09/28 12:13:54;;;;;;;5.60;2.43;;;15.60;99.90;;;;;;4956424;28;20508;-74
2022/09/28 12:16:27;;;;;;;4.30;2.30;;;15.80;99.90;;;;;;4978421;28;20476;-74
2022/09/28 12:18:56;;;;;;;5.50;2.70;;;16.50;99.90;;;;;;4982003;28;20604;-73
2022/09/28 12:21:33;;;;;;;2.93;2.10;;;16.90;99.90;;;;;;4980241;28;20816;-74
2022/09/28 12:24:19;;;;;;;9.27;2.53;;;17.40;99.90;;;;;;4982273;28;21182;-74
2022/09/28 12:26:59;;;;;;;3.53;2.10;;;17.70;99.90;;;;;;4980772;28;20512;-74
2022/09/28 12:29:49;;;;;;;3.20;2.50;;;18.20;99.90;;;;;;4978642;28;20432;-73
2022/09/28 12:32:43;;;;;;;3.20;2.10;;;18.60;99.90;;;;;;4955676;28;20862;-74
2022/09/28 12:35:33;;;;;;;5.03;2.40;;;18.50;99.90;;;;;;4980985;28;20480;-73
2022/09/28 12:38:28;;;;;;;4.53;2.60;;;18.40;99.90;;;;;;4971900;28;20814;-75
2022/09/28 12:41:18;;;;;;;7.77;2.20;;;18.40;99.90;;;;;;4979950;28;20433;-75
2022/09/28 12:44:16;;;;;;;4.50;2.40;;;18.20;99.90;;;;;;4968124;28;20442;-74
2022/09/28 12:46:47;;;;;;;3.17;2.07;;;17.90;99.90;;;;;;4964071;28;20891;-74
2022/09/28 12:49:33;;;;;;;6.77;2.50;;;17.40;99.90;;;;;;4979610;28;20913;-74
2022/09/28 12:52:24;;;;;;;3.73;2.13;;;17.00;99.90;;;;;;4980828;28;20445;-75
2022/09/28 12:55:37;;;;;;;3.27;2.07;;;16.90;99.90;;;;;;4978741;28;20413;-74
2022/09/28 12:58:15;;;;;;;2.70;1.80;;;16.80;99.90;;;;;;4974937;28;20547;-74
2022/09/28 13:01:09;;;;;;;3.77;2.27;;;16.80;99.90;;;;;;4981698;28;20443;-74
2022/09/28 13:03:49;;;;;;;3.60;2.17;;;16.70;99.90;;;;;;4940017;28;20433;-73
2022/09/28 13:06:33;;;;;;;4.43;2.63;;;16.50;99.90;;;;;;4973609;28;20471;-73
2022/09/28 13:09:02;;;;;;;2.67;2.10;;;16.30;99.90;;;;;;4978374;28;20438;-74
2022/09/28 13:11:42;;;;;;;3.70;2.20;;;16.20;99.90;;;;;;4958023;28;20521;-73
2022/09/28 13:14:17;;;;;;;4.40;2.33;;;16.20;99.90;;;;;;4981371;28;20455;-74
2022/09/28 13:17:03;;;;;;;4.27;2.33;;;16.10;99.90;;;;;;4981024;28;20409;-74
2022/09/28 13:20:14;;;;;;;4.40;2.40;;;16.00;99.90;;;;;;4954158;28;20438;-73